sensor_id;sensor_type;location;lat;lon;timestamp;P1;durP1;ratioP1;P2;durP2;ratioP2
36371;SDS011;22398;51.346;12.372;2024-02-23T00:00:18;2.53;;;0.60;;
36371;SDS011;22398;51.346;12.372;2024-02-23T00:05:22;1.37;;;0.53;;
36371;SDS011;22398;51.346;12.372;2024-02-23T00:10:25;3.22;;;0.43;;
36371;SDS011;22398;51.346;12.372;2024-02-23T00:15:29;3.72;;;0.60;;
36371;SDS011;22398;51.346;12.372;2024-02-23T00:20:33;1.25;;;0.55;;
36371;SDS011;22398;51.346;12.372;2024-02-23T00:25:38;0.90;;;0.50;;
36371;SDS011;22398;51.346;12.372;2024-02-23T00:30:42;0.60;;;0.60;;
36371;SDS011;22398;51.346;12.372;2024-02-23T00:35:46;0.88;;;0.50;;
36371;SDS011;22398;51.346;12.372;2024-02-23T00:40:50;0.52;;;0.30;;
36371;SDS011;22398;51.346;12.372;2024-02-23T00:45:55;1.15;;;0.57;;
36371;SDS011;22398;51.346;12.372;2024-02-23T00:50:58;3.00;;;0.60;;
36371;SDS011;22398;51.346;12.372;2024-02-23T00:56:01;0.68;;;0.40;;
36371;SDS011;22398;51.346;12.372;2024-02-23T01:01:06;1.05;;;0.50;;
36371;SDS011;22398;51.346;12.372;2024-02-23T01:06:09;0.50;;;0.40;;
36371;SDS011;22398;51.346;12.372;2024-02-23T01:11:13;4.45;;;0.68;;
36371;SDS011;22398;51.346;12.372;2024-02-23T01:16:17;1.17;;;0.60;;
36371;SDS011;22398;51.346;12.372;2024-02-23T01:21:21;1.20;;;0.50;;
36371;SDS011;22398;51.346;12.372;2024-02-23T01:26:24;0.30;;;0.30;;
36371;SDS011;22398;51.346;12.372;2024-02-23T01:31:30;0.60;;;0.40;;
36371;SDS011;22398;51.346;12.372;2024-02-23T01:36:33;0.60;;;0.40;;
36371;SDS011;22398;51.346;12.372;2024-02-23T01:41:37;0.65;;;0.40;;
36371;SDS011;22398;51.346;12.372;2024-02-23T01:46:43;1.65;;;0.60;;
36371;SDS011;22398;51.346;12.372;2024-02-23T01:56:50;3.15;;;0.50;;
36371;SDS011;22398;51.346;12.372;2024-02-23T02:01:58;1.10;;;0.55;;
36371;SDS011;22398;51.346;12.372;2024-02-23T02:07:02;1.13;;;0.40;;
36371;SDS011;22398;51.346;12.372;2024-02-23T02:12:06;0.85;;;0.43;;
36371;SDS011;22398;51.346;12.372;2024-02-23T02:17:12;1.30;;;0.40;;
36371;SDS011;22398;51.346;12.372;2024-02-23T02:22:15;1.73;;;0.50;;
36371;SDS011;22398;51.346;12.372;2024-02-23T02:27:18;0.20;;;0.20;;
36371;SDS011;22398;51.346;12.372;2024-02-23T02:32:23;0.88;;;0.20;;
36371;SDS011;22398;51.346;12.372;2024-02-23T02:37:27;0.28;;;0.20;;
36371;SDS011;22398;51.346;12.372;2024-02-23T02:42:30;1.30;;;0.20;;
36371;SDS011;22398;51.346;12.372;2024-02-23T02:47:35;0.10;;;0.10;;
36371;SDS011;22398;51.346;12.372;2024-02-23T02:52:38;0.82;;;0.13;;
36371;SDS011;22398;51.346;12.372;2024-02-23T02:57:43;0.70;;;0.20;;
36371;SDS011;22398;51.346;12.372;2024-02-23T03:02:48;0.15;;;0.15;;
36371;SDS011;22398;51.346;12.372;2024-02-23T03:07:52;2.17;;;0.40;;
36371;SDS011;22398;51.346;12.372;2024-02-23T03:12:55;1.75;;;0.40;;
36371;SDS011;22398;51.346;12.372;2024-02-23T03:18:00;0.85;;;0.47;;
36371;SDS011;22398;51.346;12.372;2024-02-23T03:23:04;1.45;;;0.35;;
36371;SDS011;22398;51.346;12.372;2024-02-23T03:28:07;0.57;;;0.30;;
36371;SDS011;22398;51.346;12.372;2024-02-23T03:33:11;1.33;;;0.43;;
36371;SDS011;22398;51.346;12.372;2024-02-23T03:38:15;0.20;;;0.20;;
36371;SDS011;22398;51.346;12.372;2024-02-23T03:43:19;1.33;;;0.30;;
36371;SDS011;22398;51.346;12.372;2024-02-23T03:48:23;0.45;;;0.10;;
36371;SDS011;22398;51.346;12.372;2024-02-23T03:53:27;3.97;;;0.38;;
36371;SDS011;22398;51.346;12.372;2024-02-23T03:58:30;0.57;;;0.30;;
36371;SDS011;22398;51.346;12.372;2024-02-23T04:03:35;0.68;;;0.38;;
36371;SDS011;22398;51.346;12.372;2024-02-23T04:08:38;3.67;;;0.43;;
36371;SDS011;22398;51.346;12.372;2024-02-23T04:13:43;0.50;;;0.20;;
36371;SDS011;22398;51.346;12.372;2024-02-23T04:18:52;1.88;;;0.30;;
36371;SDS011;22398;51.346;12.372;2024-02-23T04:23:56;4.78;;;0.40;;
36371;SDS011;22398;51.346;12.372;2024-02-23T04:28:59;2.05;;;0.22;;
36371;SDS011;22398;51.346;12.372;2024-02-23T04:34:03;0.63;;;0.35;;
36371;SDS011;22398;51.346;12.372;2024-02-23T04:39:07;1.43;;;0.50;;
36371;SDS011;22398;51.346;12.372;2024-02-23T04:44:10;0.95;;;0.30;;
36371;SDS011;22398;51.346;12.372;2024-02-23T04:49:15;6.72;;;0.55;;
36371;SDS011;22398;51.346;12.372;2024-02-23T04:54:19;1.73;;;0.85;;
36371;SDS011;22398;51.346;12.372;2024-02-23T04:59:23;1.65;;;0.40;;
36371;SDS011;22398;51.346;12.372;2024-02-23T05:04:27;3.63;;;0.40;;
36371;SDS011;22398;51.346;12.372;2024-02-23T05:09:31;5.20;;;0.87;;
36371;SDS011;22398;51.346;12.372;2024-02-23T05:14:34;2.53;;;0.25;;
36371;SDS011;22398;51.346;12.372;2024-02-23T05:19:39;0.85;;;0.38;;
36371;SDS011;22398;51.346;12.372;2024-02-23T05:24:43;0.22;;;0.20;;
36371;SDS011;22398;51.346;12.372;2024-02-23T05:29:47;0.90;;;0.20;;
36371;SDS011;22398;51.346;12.372;2024-02-23T05:34:51;1.33;;;0.30;;
36371;SDS011;22398;51.346;12.372;2024-02-23T05:39:56;1.10;;;0.28;;
36371;SDS011;22398;51.346;12.372;2024-02-23T05:45:01;1.58;;;0.50;;
36371;SDS011;22398;51.346;12.372;2024-02-23T05:50:08;0.93;;;0.40;;
36371;SDS011;22398;51.346;12.372;2024-02-23T05:55:12;0.20;;;0.20;;
36371;SDS011;22398;51.346;12.372;2024-02-23T06:00:16;0.60;;;0.15;;
36371;SDS011;22398;51.346;12.372;2024-02-23T06:05:22;0.23;;;0.10;;
36371;SDS011;22398;51.346;12.372;2024-02-23T06:10:29;1.80;;;0.50;;
36371;SDS011;22398;51.346;12.372;2024-02-23T06:15:32;4.35;;;0.50;;
36371;SDS011;22398;51.346;12.372;2024-02-23T06:20:37;4.95;;;0.32;;
36371;SDS011;22398;51.346;12.372;2024-02-23T06:25:40;1.20;;;0.50;;
36371;SDS011;22398;51.346;12.372;2024-02-23T06:30:46;0.73;;;0.25;;
36371;SDS011;22398;51.346;12.372;2024-02-23T06:35:51;4.40;;;0.40;;
36371;SDS011;22398;51.346;12.372;2024-02-23T06:40:54;0.90;;;0.35;;
36371;SDS011;22398;51.346;12.372;2024-02-23T06:45:59;0.90;;;0.30;;
36371;SDS011;22398;51.346;12.372;2024-02-23T06:51:08;3.95;;;0.52;;
36371;SDS011;22398;51.346;12.372;2024-02-23T06:56:12;0.60;;;0.30;;
36371;SDS011;22398;51.346;12.372;2024-02-23T07:01:15;1.23;;;0.40;;
36371;SDS011;22398;51.346;12.372;2024-02-23T07:06:20;5.53;;;1.58;;
36371;SDS011;22398;51.346;12.372;2024-02-23T07:11:23;2.53;;;0.43;;
36371;SDS011;22398;51.346;12.372;2024-02-23T07:16:27;1.60;;;0.38;;
36371;SDS011;22398;51.346;12.372;2024-02-23T07:21:31;1.75;;;0.43;;
36371;SDS011;22398;51.346;12.372;2024-02-23T07:26:35;2.72;;;1.20;;
36371;SDS011;22398;51.346;12.372;2024-02-23T07:31:38;2.15;;;0.40;;
36371;SDS011;22398;51.346;12.372;2024-02-23T07:36:43;4.50;;;0.70;;
36371;SDS011;22398;51.346;12.372;2024-02-23T07:41:46;1.50;;;0.40;;
36371;SDS011;22398;51.346;12.372;2024-02-23T07:46:50;1.98;;;0.50;;
36371;SDS011;22398;51.346;12.372;2024-02-23T07:51:57;4.25;;;0.50;;
36371;SDS011;22398;51.346;12.372;2024-02-23T07:57:01;2.83;;;0.60;;
36371;SDS011;22398;51.346;12.372;2024-02-23T08:02:05;1.60;;;0.47;;
36371;SDS011;22398;51.346;12.372;2024-02-23T08:07:10;2.35;;;0.95;;
36371;SDS011;22398;51.346;12.372;2024-02-23T08:12:14;2.08;;;0.40;;
36371;SDS011;22398;51.346;12.372;2024-02-23T08:17:17;1.55;;;0.40;;
36371;SDS011;22398;51.346;12.372;2024-02-23T08:22:22;0.73;;;0.30;;
36371;SDS011;22398;51.346;12.372;2024-02-23T08:27:25;1.80;;;0.30;;
36371;SDS011;22398;51.346;12.372;2024-02-23T08:32:29;1.40;;;0.40;;
36371;SDS011;22398;51.346;12.372;2024-02-23T08:37:33;3.70;;;0.70;;
36371;SDS011;22398;51.346;12.372;2024-02-23T08:42:37;3.13;;;0.70;;
36371;SDS011;22398;51.346;12.372;2024-02-23T08:47:41;5.10;;;0.50;;
36371;SDS011;22398;51.346;12.372;2024-02-23T08:52:46;3.53;;;0.60;;
36371;SDS011;22398;51.346;12.372;2024-02-23T08:57:49;4.47;;;0.88;;
36371;SDS011;22398;51.346;12.372;2024-02-23T09:02:52;2.10;;;1.02;;
36371;SDS011;22398;51.346;12.372;2024-02-23T09:07:57;2.22;;;0.63;;
36371;SDS011;22398;51.346;12.372;2024-02-23T09:13:01;4.45;;;0.95;;
36371;SDS011;22398;51.346;12.372;2024-02-23T09:18:05;2.53;;;0.60;;
36371;SDS011;22398;51.346;12.372;2024-02-23T09:23:09;3.00;;;0.50;;
36371;SDS011;22398;51.346;12.372;2024-02-23T09:28:13;2.00;;;0.50;;
36371;SDS011;22398;51.346;12.372;2024-02-23T09:33:16;3.05;;;0.40;;
36371;SDS011;22398;51.346;12.372;2024-02-23T09:38:21;2.95;;;0.60;;
36371;SDS011;22398;51.346;12.372;2024-02-23T09:43:26;4.53;;;0.70;;
36371;SDS011;22398;51.346;12.372;2024-02-23T09:48:36;5.85;;;0.80;;
36371;SDS011;22398;51.346;12.372;2024-02-23T09:53:45;2.35;;;0.45;;
36371;SDS011;22398;51.346;12.372;2024-02-23T09:58:52;3.88;;;0.40;;
36371;SDS011;22398;51.346;12.372;2024-02-23T10:03:58;1.98;;;0.50;;
36371;SDS011;22398;51.346;12.372;2024-02-23T10:09:03;2.67;;;0.40;;
36371;SDS011;22398;51.346;12.372;2024-02-23T10:14:07;3.55;;;0.40;;
36371;SDS011;22398;51.346;12.372;2024-02-23T10:19:11;0.22;;;0.22;;
36371;SDS011;22398;51.346;12.372;2024-02-23T10:24:17;1.75;;;0.38;;
36371;SDS011;22398;51.346;12.372;2024-02-23T10:29:20;4.07;;;0.60;;
36371;SDS011;22398;51.346;12.372;2024-02-23T10:34:24;2.78;;;0.55;;
36371;SDS011;22398;51.346;12.372;2024-02-23T10:39:30;1.33;;;0.50;;
36371;SDS011;22398;51.346;12.372;2024-02-23T10:44:33;2.60;;;1.00;;
36371;SDS011;22398;51.346;12.372;2024-02-23T10:49:38;3.05;;;0.50;;
36371;SDS011;22398;51.346;12.372;2024-02-23T10:54:44;1.67;;;0.47;;
36371;SDS011;22398;51.346;12.372;2024-02-23T10:59:48;3.22;;;0.55;;
36371;SDS011;22398;51.346;12.372;2024-02-23T11:04:52;1.83;;;0.52;;
36371;SDS011;22398;51.346;12.372;2024-02-23T11:10:00;1.90;;;0.50;;
36371;SDS011;22398;51.346;12.372;2024-02-23T11:20:07;3.50;;;0.95;;
36371;SDS011;22398;51.346;12.372;2024-02-23T11:25:32;2.97;;;0.80;;
36371;SDS011;22398;51.346;12.372;2024-02-23T11:30:36;1.97;;;0.80;;
36371;SDS011;22398;51.346;12.372;2024-02-23T11:35:45;1.95;;;0.40;;
36371;SDS011;22398;51.346;12.372;2024-02-23T11:40:52;1.55;;;0.60;;
36371;SDS011;22398;51.346;12.372;2024-02-23T11:45:55;1.40;;;0.60;;
36371;SDS011;22398;51.346;12.372;2024-02-23T11:50:59;3.50;;;1.10;;
36371;SDS011;22398;51.346;12.372;2024-02-23T11:56:04;5.18;;;1.50;;
36371;SDS011;22398;51.346;12.372;2024-02-23T12:01:08;1.90;;;0.85;;
36371;SDS011;22398;51.346;12.372;2024-02-23T12:06:12;1.55;;;0.98;;
36371;SDS011;22398;51.346;12.372;2024-02-23T12:11:19;5.85;;;1.50;;
36371;SDS011;22398;51.346;12.372;2024-02-23T12:16:22;3.17;;;0.77;;
36371;SDS011;22398;51.346;12.372;2024-02-23T12:21:26;2.55;;;0.60;;
36371;SDS011;22398;51.346;12.372;2024-02-23T12:26:30;3.13;;;1.13;;
36371;SDS011;22398;51.346;12.372;2024-02-23T12:31:34;2.10;;;0.80;;
36371;SDS011;22398;51.346;12.372;2024-02-23T12:36:37;3.47;;;0.85;;
36371;SDS011;22398;51.346;12.372;2024-02-23T12:41:43;2.88;;;0.93;;
36371;SDS011;22398;51.346;12.372;2024-02-23T12:46:47;2.72;;;0.95;;
36371;SDS011;22398;51.346;12.372;2024-02-23T12:51:50;4.43;;;1.33;;
36371;SDS011;22398;51.346;12.372;2024-02-23T12:56:55;3.03;;;1.10;;
36371;SDS011;22398;51.346;12.372;2024-02-23T13:01:58;4.50;;;0.77;;
36371;SDS011;22398;51.346;12.372;2024-02-23T13:07:02;3.40;;;0.70;;
36371;SDS011;22398;51.346;12.372;2024-02-23T13:12:06;1.65;;;0.80;;
36371;SDS011;22398;51.346;12.372;2024-02-23T13:17:10;3.38;;;0.73;;
36371;SDS011;22398;51.346;12.372;2024-02-23T13:22:13;1.88;;;0.70;;
36371;SDS011;22398;51.346;12.372;2024-02-23T13:27:18;3.92;;;0.80;;
36371;SDS011;22398;51.346;12.372;2024-02-23T13:32:22;2.13;;;0.93;;
36371;SDS011;22398;51.346;12.372;2024-02-23T13:37:25;2.08;;;1.10;;
36371;SDS011;22398;51.346;12.372;2024-02-23T13:42:30;2.75;;;1.05;;
36371;SDS011;22398;51.346;12.372;2024-02-23T13:47:34;5.38;;;2.42;;
36371;SDS011;22398;51.346;12.372;2024-02-23T13:52:38;2.05;;;0.80;;
36371;SDS011;22398;51.346;12.372;2024-02-23T13:57:42;2.65;;;0.73;;
36371;SDS011;22398;51.346;12.372;2024-02-23T14:02:46;3.50;;;0.43;;
36371;SDS011;22398;51.346;12.372;2024-02-23T14:07:50;1.88;;;0.57;;
36371;SDS011;22398;51.346;12.372;2024-02-23T14:12:56;4.07;;;0.80;;
36371;SDS011;22398;51.346;12.372;2024-02-23T14:18:00;3.30;;;0.87;;
36371;SDS011;22398;51.346;12.372;2024-02-23T14:23:03;6.82;;;0.90;;
36371;SDS011;22398;51.346;12.372;2024-02-23T14:28:08;6.00;;;0.60;;
36371;SDS011;22398;51.346;12.372;2024-02-23T14:33:12;1.52;;;0.93;;
36371;SDS011;22398;51.346;12.372;2024-02-23T14:38:15;1.35;;;0.45;;
36371;SDS011;22398;51.346;12.372;2024-02-23T14:43:20;2.17;;;0.65;;
36371;SDS011;22398;51.346;12.372;2024-02-23T14:48:24;4.50;;;1.30;;
36371;SDS011;22398;51.346;12.372;2024-02-23T14:53:27;4.85;;;0.98;;
36371;SDS011;22398;51.346;12.372;2024-02-23T14:58:32;2.22;;;0.80;;
36371;SDS011;22398;51.346;12.372;2024-02-23T15:03:35;2.50;;;0.83;;
36371;SDS011;22398;51.346;12.372;2024-02-23T15:08:39;2.78;;;0.68;;
36371;SDS011;22398;51.346;12.372;2024-02-23T15:13:44;4.03;;;1.20;;
36371;SDS011;22398;51.346;12.372;2024-02-23T15:18:47;1.80;;;0.65;;
36371;SDS011;22398;51.346;12.372;2024-02-23T15:23:51;5.20;;;1.35;;
36371;SDS011;22398;51.346;12.372;2024-02-23T15:28:56;3.08;;;0.75;;
36371;SDS011;22398;51.346;12.372;2024-02-23T15:33:59;1.97;;;0.53;;
36371;SDS011;22398;51.346;12.372;2024-02-23T15:39:03;6.43;;;1.42;;
36371;SDS011;22398;51.346;12.372;2024-02-23T15:44:09;1.75;;;0.90;;
36371;SDS011;22398;51.346;12.372;2024-02-23T15:49:12;7.00;;;1.23;;
36371;SDS011;22398;51.346;12.372;2024-02-23T15:54:39;6.78;;;1.10;;
36371;SDS011;22398;51.346;12.372;2024-02-23T15:59:44;3.90;;;0.60;;
36371;SDS011;22398;51.346;12.372;2024-02-23T16:05:05;3.45;;;1.35;;
36371;SDS011;22398;51.346;12.372;2024-02-23T16:10:09;4.07;;;0.57;;
36371;SDS011;22398;51.346;12.372;2024-02-23T16:15:17;3.53;;;1.17;;
36371;SDS011;22398;51.346;12.372;2024-02-23T16:20:20;4.27;;;0.97;;
36371;SDS011;22398;51.346;12.372;2024-02-23T16:25:23;3.45;;;0.90;;
36371;SDS011;22398;51.346;12.372;2024-02-23T16:30:28;3.55;;;0.50;;
36371;SDS011;22398;51.346;12.372;2024-02-23T16:35:34;2.45;;;0.65;;
36371;SDS011;22398;51.346;12.372;2024-02-23T16:40:37;6.47;;;0.90;;
36371;SDS011;22398;51.346;12.372;2024-02-23T16:45:43;3.17;;;1.27;;
36371;SDS011;22398;51.346;12.372;2024-02-23T16:50:49;3.53;;;1.03;;
36371;SDS011;22398;51.346;12.372;2024-02-23T17:01:04;2.67;;;0.90;;
36371;SDS011;22398;51.346;12.372;2024-02-23T17:06:08;3.70;;;1.15;;
36371;SDS011;22398;51.346;12.372;2024-02-23T17:11:12;6.40;;;1.80;;
36371;SDS011;22398;51.346;12.372;2024-02-23T17:16:17;6.68;;;1.23;;
36371;SDS011;22398;51.346;12.372;2024-02-23T17:21:22;2.45;;;0.73;;
36371;SDS011;22398;51.346;12.372;2024-02-23T17:26:26;5.32;;;1.92;;
36371;SDS011;22398;51.346;12.372;2024-02-23T17:31:31;4.00;;;1.25;;
36371;SDS011;22398;51.346;12.372;2024-02-23T17:36:34;4.07;;;1.50;;
36371;SDS011;22398;51.346;12.372;2024-02-23T17:41:43;8.45;;;2.15;;
36371;SDS011;22398;51.346;12.372;2024-02-23T17:46:49;7.53;;;1.98;;
36371;SDS011;22398;51.346;12.372;2024-02-23T17:51:52;5.05;;;1.48;;
36371;SDS011;22398;51.346;12.372;2024-02-23T17:56:56;5.72;;;1.70;;
36371;SDS011;22398;51.346;12.372;2024-02-23T18:02:01;6.38;;;2.13;;
36371;SDS011;22398;51.346;12.372;2024-02-23T18:07:04;5.00;;;1.80;;
36371;SDS011;22398;51.346;12.372;2024-02-23T18:12:07;6.63;;;1.58;;
36371;SDS011;22398;51.346;12.372;2024-02-23T18:17:12;4.82;;;1.60;;
36371;SDS011;22398;51.346;12.372;2024-02-23T18:22:16;5.45;;;1.40;;
36371;SDS011;22398;51.346;12.372;2024-02-23T18:27:20;7.90;;;2.20;;
36371;SDS011;22398;51.346;12.372;2024-02-23T18:32:24;11.35;;;1.48;;
36371;SDS011;22398;51.346;12.372;2024-02-23T18:37:28;4.83;;;1.60;;
36371;SDS011;22398;51.346;12.372;2024-02-23T18:42:31;3.75;;;1.65;;
36371;SDS011;22398;51.346;12.372;2024-02-23T18:47:36;4.63;;;1.75;;
36371;SDS011;22398;51.346;12.372;2024-02-23T18:52:40;4.18;;;1.85;;
36371;SDS011;22398;51.346;12.372;2024-02-23T18:57:43;5.82;;;1.70;;
36371;SDS011;22398;51.346;12.372;2024-02-23T19:02:48;5.35;;;1.65;;
36371;SDS011;22398;51.346;12.372;2024-02-23T19:07:51;11.70;;;2.57;;
36371;SDS011;22398;51.346;12.372;2024-02-23T19:12:54;7.45;;;1.95;;
36371;SDS011;22398;51.346;12.372;2024-02-23T19:18:00;3.58;;;1.38;;
36371;SDS011;22398;51.346;12.372;2024-02-23T19:23:05;3.05;;;1.30;;
36371;SDS011;22398;51.346;12.372;2024-02-23T19:33:15;5.55;;;1.67;;
36371;SDS011;22398;51.346;12.372;2024-02-23T19:38:18;4.27;;;1.27;;
36371;SDS011;22398;51.346;12.372;2024-02-23T19:43:22;4.38;;;1.90;;
36371;SDS011;22398;51.346;12.372;2024-02-23T19:48:26;4.68;;;1.70;;
36371;SDS011;22398;51.346;12.372;2024-02-23T19:53:30;8.82;;;1.50;;
36371;SDS011;22398;51.346;12.372;2024-02-23T19:58:34;13.60;;;3.80;;
36371;SDS011;22398;51.346;12.372;2024-02-23T20:03:39;6.13;;;1.48;;
36371;SDS011;22398;51.346;12.372;2024-02-23T20:08:43;5.77;;;1.30;;
36371;SDS011;22398;51.346;12.372;2024-02-23T20:13:46;4.28;;;2.17;;
36371;SDS011;22398;51.346;12.372;2024-02-23T20:18:51;6.72;;;1.80;;
36371;SDS011;22398;51.346;12.372;2024-02-23T20:23:55;4.20;;;1.40;;
36371;SDS011;22398;51.346;12.372;2024-02-23T20:28:58;4.97;;;1.58;;
36371;SDS011;22398;51.346;12.372;2024-02-23T20:34:03;4.20;;;1.52;;
36371;SDS011;22398;51.346;12.372;2024-02-23T20:39:08;4.63;;;2.25;;
36371;SDS011;22398;51.346;12.372;2024-02-23T20:44:12;7.20;;;1.70;;
36371;SDS011;22398;51.346;12.372;2024-02-23T20:49:17;5.00;;;1.90;;
36371;SDS011;22398;51.346;12.372;2024-02-23T20:54:20;5.83;;;1.60;;
36371;SDS011;22398;51.346;12.372;2024-02-23T20:59:24;6.35;;;1.48;;
36371;SDS011;22398;51.346;12.372;2024-02-23T21:04:29;10.18;;;1.70;;
36371;SDS011;22398;51.346;12.372;2024-02-23T21:09:33;4.88;;;2.00;;
36371;SDS011;22398;51.346;12.372;2024-02-23T21:14:38;4.80;;;1.73;;
36371;SDS011;22398;51.346;12.372;2024-02-23T21:19:46;9.05;;;1.60;;
36371;SDS011;22398;51.346;12.372;2024-02-23T21:24:49;8.77;;;1.67;;
36371;SDS011;22398;51.346;12.372;2024-02-23T21:29:53;6.05;;;2.00;;
36371;SDS011;22398;51.346;12.372;2024-02-23T21:35:00;5.63;;;1.90;;
36371;SDS011;22398;51.346;12.372;2024-02-23T21:40:03;6.33;;;2.20;;
36371;SDS011;22398;51.346;12.372;2024-02-23T21:45:08;9.35;;;2.67;;
36371;SDS011;22398;51.346;12.372;2024-02-23T21:50:13;3.42;;;1.65;;
36371;SDS011;22398;51.346;12.372;2024-02-23T21:55:18;12.13;;;2.42;;
36371;SDS011;22398;51.346;12.372;2024-02-23T22:00:23;5.35;;;1.95;;
36371;SDS011;22398;51.346;12.372;2024-02-23T22:05:28;6.68;;;2.30;;
36371;SDS011;22398;51.346;12.372;2024-02-23T22:10:32;6.85;;;2.92;;
36371;SDS011;22398;51.346;12.372;2024-02-23T22:15:35;10.77;;;2.40;;
36371;SDS011;22398;51.346;12.372;2024-02-23T22:20:40;7.65;;;2.58;;
36371;SDS011;22398;51.346;12.372;2024-02-23T22:25:44;12.90;;;2.90;;
36371;SDS011;22398;51.346;12.372;2024-02-23T22:30:47;6.80;;;2.55;;
36371;SDS011;22398;51.346;12.372;2024-02-23T22:35:52;6.43;;;2.30;;
36371;SDS011;22398;51.346;12.372;2024-02-23T22:40:56;3.37;;;2.13;;
36371;SDS011;22398;51.346;12.372;2024-02-23T22:45:59;5.38;;;2.10;;
36371;SDS011;22398;51.346;12.372;2024-02-23T22:51:04;5.57;;;2.45;;
36371;SDS011;22398;51.346;12.372;2024-02-23T22:56:08;4.75;;;2.03;;
36371;SDS011;22398;51.346;12.372;2024-02-23T23:01:11;6.18;;;2.80;;
36371;SDS011;22398;51.346;12.372;2024-02-23T23:06:16;5.03;;;2.78;;
36371;SDS011;22398;51.346;12.372;2024-02-23T23:11:31;9.48;;;3.25;;
36371;SDS011;22398;51.346;12.372;2024-02-23T23:16:35;9.80;;;3.03;;
36371;SDS011;22398;51.346;12.372;2024-02-23T23:21:39;7.82;;;3.25;;
36371;SDS011;22398;51.346;12.372;2024-02-23T23:26:43;7.03;;;3.07;;
36371;SDS011;22398;51.346;12.372;2024-02-23T23:31:47;9.38;;;3.33;;
36371;SDS011;22398;51.346;12.372;2024-02-23T23:36:51;9.20;;;3.60;;
36371;SDS011;22398;51.346;12.372;2024-02-23T23:41:55;8.53;;;3.13;;
36371;SDS011;22398;51.346;12.372;2024-02-23T23:46:58;8.90;;;3.35;;
36371;SDS011;22398;51.346;12.372;2024-02-23T23:52:03;9.93;;;3.60;;
36371;SDS011;22398;51.346;12.372;2024-02-23T23:57:07;6.78;;;3.03;;
